アイウン の空港の天気 - METARとTAF

アイウン/ハッサン空港 ( GMML / EUN ) - 西サハラ アイウン
飛行場実況気象(Metar)
観測時間10/15 20:10 CET (10/15 19:10 UTC)
風向・風速北東 6m/s
視程6000m
天気現象
全天の4割程度の雲 雲底高度 610m
全天を覆う雲 雲底高度 1710m
気温20℃
湿度83%
気圧1020hPa
METARGMML 151910Z 04012KT 6000 SCT020 OVC056 20/17 Q1020 NOSIG
過去の天気等 Google飛行場航空写真 Wunderground天気予報

過去48時間のMETAR

飛行場予報(TAF)
発表時間: 10/16 06:00 CET (10/16 05:00 UTC)
予報対象時間: 16日7時 CET ~ 17日13時 CET
風向・風速東 4m/s
視程10km以上
全天の4割程度の雲 雲底高度 610m
全天の8割程度の雲 雲底高度 2130m
TAF GMML 160500Z 1606/1712 08008KT 9999 SCT020 BKN070